Hannover, Germany

1:45 AM CEST on September 02, 2014 (GMT +0200)
INIEDERS92 | Change Station
CLOSE
Current Station
Personal Weather Station
Location: Hannover, Niedersachsen
Elevation: 180 ft
Nearby Weather Stations

Elev 180 ft 52.40 °N, 9.76 °E | Updated 45 minutes ago

Mostly Cloudy
Mostly Cloudy
59.2 °F
Feels Like 59.2 °F
N
2.5
Wind Variable Wind from WNW
Gusts 5.0 mph

Today
High -- | Low -- °F
--% Chance of Precip.
Yesterday
High -- | Low -- °F
Precip. -- in
6:33 AM 8:07 PM
Waxing Crescent, 45% visible
Pressure 30.09 in
Visibility 6.2 miles
Clouds Mostly Cloudy 2200 ft
Mostly Cloudy 11000 ft
Dew Point 58 °F
Humidity 95%
Rainfall 0.00 in
Snow Depth Not available.
UV 0.0 out of 12
Pollen Not available.
Air Quality Not available.
Flu Activity Not available.
METAR EDDV 012320Z 28006KT 9999 BKN022 BKN110 15/14 Q1019

More Conditions Fewer Conditions

Pressure 30.09 in
Visibility 6.2 miles
Clouds Mostly Cloudy 2200 ft
Mostly Cloudy 11000 ft
Dew Point 58 °F
Humidity 95%
Rainfall 0.00 in
Snow Depth Not available.
UV 0.0 out of 12
Pollen Not available.
Air Quality Not available.
Flu Activity Not available.
METAR EDDV 012320Z 28006KT 9999 BKN022 BKN110 15/14 Q1019

More Conditions Fewer Conditions

10-Day Weather Forecast

Almanac

Astronomy

Sep. 02, 2014 Rise Set
Actual Time 6:33 AM CEST 8:07 PM CEST
Civil Twilight 5:57 AM CEST 8:42 PM CEST
Nautical Twilight 5:13 AM CEST 9:26 PM CEST
Astronomical Twilight 4:24 AM CEST 10:14 PM CEST
Moon 2:56 PM CEST (9/2) 11:50 PM CEST (9/2)
Length of Visible Light 14h 45m
Length of Day
13h 33m
Tomorrow will be 3m 59s shorter.
Waxing Crescent, 45% of the Moon is Illuminated
Sep 1
Waxing Crescent
Sep 2
First Quarter
Sep 8
Full
Sep 15
Last Quarter
Sep 24
New

Yesterday's Extremes

Country Highs Country Lows

Community

WunderPhotos

Upload Photos

1,749,440 photos uploaded!

Nearby

Snow Depth

Not available.

Earthquake Activity

City Distance Mag. Time & Date
No recent earthquake activity has been reported nearby.
Minimum magnitude displayed is 2.5.

Coastal Water Temperatures

Place Temperature
No Stations Reporting

Nearby Weather Stations